createdAt,value
2022-10-23T00:00:35.682Z,20.95
2022-10-23T00:01:35.667Z,20.8
2022-10-23T00:02:35.656Z,21.13
2022-10-23T00:03:35.647Z,21.23
2022-10-23T00:04:35.653Z,20.93
2022-10-23T00:05:35.627Z,20.56
2022-10-23T00:06:35.615Z,20.12
2022-10-23T00:07:35.632Z,20.16
2022-10-23T00:08:35.593Z,20.16
2022-10-23T00:09:35.582Z,20.23
2022-10-23T00:10:35.589Z,20.42
2022-10-23T00:11:35.559Z,20.77
2022-10-23T00:12:35.550Z,20.49
2022-10-23T00:13:35.535Z,20.18
2022-10-23T00:14:35.531Z,20.09
2022-10-23T00:15:35.515Z,20.23
2022-10-23T00:16:35.511Z,20.16
2022-10-23T00:17:35.497Z,20.43
2022-10-23T00:18:35.487Z,20.64
2022-10-23T00:19:35.489Z,20.79
2022-10-23T00:20:35.464Z,20.41
2022-10-23T00:21:35.453Z,20.1
2022-10-23T00:22:35.445Z,19.65
2022-10-23T00:23:35.431Z,19.51
2022-10-23T00:24:35.417Z,19.4
2022-10-23T00:25:35.421Z,19.54
2022-10-23T00:26:35.399Z,19.84
2022-10-23T00:27:35.389Z,20.09
2022-10-23T00:28:35.378Z,19.83
2022-10-23T00:29:35.364Z,19.66
2022-10-23T00:30:35.355Z,19.9
2022-10-23T00:31:35.345Z,20.02
2022-10-23T00:32:35.347Z,20.09
2022-10-23T00:33:35.329Z,20.16
2022-10-23T00:34:35.318Z,20.58
2022-10-23T00:35:35.307Z,20.53
2022-10-23T00:36:35.298Z,20.58
2022-10-23T00:37:35.278Z,20.16
2022-10-23T00:38:35.276Z,20.05
2022-10-23T00:39:35.257Z,18.52
2022-10-23T00:40:35.256Z,17.32
2022-10-23T00:41:35.242Z,16.71
2022-10-23T00:42:35.241Z,16.78
2022-10-23T00:43:35.217Z,18.09
2022-10-23T00:44:35.203Z,18.94
2022-10-23T00:45:35.199Z,19.66
2022-10-23T00:46:35.180Z,19.57
2022-10-23T00:47:35.173Z,18.7
2022-10-23T00:48:35.163Z,19.06
2022-10-23T00:49:35.164Z,19.15
2022-10-23T00:50:35.150Z,19.39
2022-10-23T00:51:35.130Z,20.13
2022-10-23T00:52:35.120Z,20.56
2022-10-23T00:53:35.112Z,20.1
2022-10-23T00:54:35.102Z,20.1
2022-10-23T00:55:35.089Z,20.39
2022-10-23T00:56:35.091Z,20.59
2022-10-23T00:57:35.070Z,20.5
2022-10-23T00:58:35.060Z,20.77
2022-10-23T00:59:35.058Z,20.81
2022-10-23T01:00:35.040Z,20.62
2022-10-23T01:01:35.026Z,20.76
2022-10-23T01:02:35.013Z,20.23
2022-10-23T01:03:35.004Z,19.9
2022-10-23T01:04:34.993Z,19.84
2022-10-23T01:05:34.995Z,19.86
2022-10-23T01:06:35.002Z,19.76
2022-10-23T01:07:34.959Z,19.94
2022-10-23T01:08:34.948Z,20.15
2022-10-23T01:09:34.961Z,20.06
2022-10-23T01:10:34.929Z,19.86
2022-10-23T01:11:34.920Z,19.87
2022-10-23T01:12:34.908Z,20.05
2022-10-23T01:13:34.899Z,19.61
2022-10-23T01:14:34.882Z,19.66
2022-10-23T01:15:34.870Z,19.86
2022-10-23T01:16:34.862Z,20.03
2022-10-23T01:17:34.858Z,20.38
2022-10-23T01:18:34.846Z,20.02
2022-10-23T01:19:34.838Z,19.51
2022-10-23T01:20:34.820Z,19.13
2022-10-23T01:21:34.810Z,19.25
2022-10-23T01:22:34.826Z,19.39
2022-10-23T01:23:34.795Z,18.94
2022-10-23T01:24:34.776Z,19.13
2022-10-23T01:25:34.765Z,19.29
2022-10-23T01:26:34.755Z,19.38
2022-10-23T01:27:34.743Z,19.47
2022-10-23T01:28:34.741Z,19.76
2022-10-23T01:29:34.724Z,19.63
2022-10-23T01:30:34.721Z,19.6
2022-10-23T01:31:34.699Z,19.9
2022-10-23T01:32:34.700Z,19.73
2022-10-23T01:33:34.688Z,19.68
2022-10-23T01:34:34.668Z,19.6
2022-10-23T01:35:34.681Z,19.29
2022-10-23T01:36:34.648Z,19.32
2022-10-23T01:37:34.636Z,18.8
2022-10-23T01:38:34.631Z,18.97
2022-10-23T01:39:34.612Z,18.99
2022-10-23T01:40:34.610Z,19.02
2022-10-23T01:41:34.593Z,18.82
2022-10-23T01:42:34.585Z,19.18
2022-10-23T01:43:34.578Z,18.94
2022-10-23T01:44:34.565Z,18.74
2022-10-23T01:45:34.550Z,18.86
2022-10-23T01:46:34.544Z,18.98
2022-10-23T01:47:34.530Z,19.01
2022-10-23T01:48:34.535Z,18.92
2022-10-23T01:49:34.515Z,18.77
2022-10-23T01:50:34.500Z,18.83
2022-10-23T01:51:34.493Z,18.86
2022-10-23T01:52:34.493Z,18.92
2022-10-23T01:53:34.472Z,18.47
2022-10-23T01:54:34.458Z,18.19
2022-10-23T01:55:34.462Z,18.09
2022-10-23T01:56:34.434Z,18.28
2022-10-23T01:57:34.430Z,18.54
2022-10-23T01:58:34.418Z,18.59
2022-10-23T01:59:34.408Z,18.65
2022-10-23T02:00:34.391Z,18.64
2022-10-23T02:01:34.379Z,18.74
2022-10-23T02:02:34.388Z,18.4
2022-10-23T02:03:34.365Z,18.28
2022-10-23T02:04:34.350Z,18.24
2022-10-23T02:05:34.341Z,18.13
2022-10-23T02:06:34.331Z,18.31
2022-10-23T02:07:34.319Z,18.1
2022-10-23T02:08:34.310Z,18.03
2022-10-23T02:09:34.314Z,18.15
2022-10-23T02:10:34.284Z,18.29
2022-10-23T02:11:34.273Z,18.18
2022-10-23T02:12:34.269Z,17.95
2022-10-23T02:13:34.256Z,17.66
2022-10-23T02:14:34.245Z,17.89
2022-10-23T02:15:34.237Z,18.18
2022-10-23T02:16:34.217Z,18.25
2022-10-23T02:17:34.216Z,18.47
2022-10-23T02:18:34.204Z,18.61
2022-10-23T02:19:34.191Z,18.95
2022-10-23T02:20:34.180Z,19.32
2022-10-23T02:21:34.173Z,19.11
2022-10-23T02:22:34.169Z,19.21
2022-10-23T02:23:34.149Z,19.15
2022-10-23T02:24:34.150Z,18.94
2022-10-23T02:25:34.128Z,18.62
2022-10-23T02:26:34.113Z,18.55
2022-10-23T02:27:34.104Z,18.21
2022-10-23T02:28:34.095Z,18.19
2022-10-23T02:29:34.098Z,18.24
2022-10-23T02:30:34.082Z,18.57
2022-10-23T02:31:34.066Z,18.28
2022-10-23T02:32:34.051Z,18.91
2022-10-23T02:33:34.055Z,19.43
2022-10-23T02:34:34.032Z,19.21
2022-10-23T02:35:41.594Z,18.94
2022-10-23T02:36:34.007Z,19.35
2022-10-23T02:37:33.995Z,19.51
2022-10-23T02:38:33.984Z,19.25
2022-10-23T02:39:33.984Z,18.97
2022-10-23T02:40:33.967Z,18.77
2022-10-23T02:41:33.963Z,17.92
2022-10-23T02:42:33.946Z,18.07
2022-10-23T02:43:33.935Z,18.04
2022-10-23T02:44:33.917Z,17.7
2022-10-23T02:45:33.924Z,17.64
2022-10-23T02:46:33.911Z,17.94
2022-10-23T02:47:33.901Z,17.82
2022-10-23T02:48:33.902Z,17.7
2022-10-23T02:49:41.552Z,18.61
2022-10-23T02:50:33.892Z,18.52
2022-10-23T02:51:33.852Z,18.73
2022-10-23T02:52:33.867Z,18.7
2022-10-23T02:53:33.837Z,18.9
2022-10-23T02:54:33.834Z,19.24
2022-10-23T02:55:33.827Z,19.15
2022-10-23T02:56:33.834Z,18.73
2022-10-23T02:57:33.796Z,18.79
2022-10-23T02:58:33.785Z,18.91
2022-10-23T02:59:33.774Z,19.18
2022-10-23T03:00:33.754Z,19.08
2022-10-23T03:01:33.736Z,18.99
2022-10-23T03:02:33.764Z,18.7
2022-10-23T03:03:33.763Z,18.4
2022-10-23T03:04:33.708Z,18.19
2022-10-23T03:05:33.723Z,18.03
2022-10-23T03:06:33.686Z,17.51
2022-10-23T03:07:33.678Z,17.66
2022-10-23T03:08:33.666Z,17.79
2022-10-23T03:09:33.653Z,17.66
2022-10-23T03:10:33.652Z,18.17
2022-10-23T03:11:33.652Z,18.37
2022-10-23T03:12:33.622Z,18.42
2022-10-23T03:13:33.609Z,18.43
2022-10-23T03:14:33.611Z,18.62
2022-10-23T03:15:33.593Z,18.52
2022-10-23T03:16:33.589Z,18.62
2022-10-23T03:17:33.569Z,18.59
2022-10-23T03:18:33.554Z,18.74
2022-10-23T03:19:33.556Z,18.54
2022-10-23T03:20:33.540Z,18.55
2022-10-23T03:21:33.548Z,18.59
2022-10-23T03:22:33.523Z,18.65
2022-10-23T03:23:33.551Z,18.8
2022-10-23T03:24:33.494Z,18.65
2022-10-23T03:25:33.491Z,18.59
2022-10-23T03:26:33.473Z,18.54
2022-10-23T03:27:33.480Z,18.34
2022-10-23T03:28:33.452Z,18.02
2022-10-23T03:29:33.479Z,17.79
2022-10-23T03:30:33.515Z,17.18
2022-10-23T03:31:41.069Z,17.33
2022-10-23T03:32:33.424Z,17.36
2022-10-23T03:33:33.394Z,17.36
2022-10-23T03:34:33.427Z,17.5
2022-10-23T03:35:40.945Z,17.48
2022-10-23T03:36:33.394Z,17.36
2022-10-23T03:37:33.365Z,17.41
2022-10-23T03:38:33.345Z,17.33
2022-10-23T03:39:33.359Z,17.17
2022-10-23T03:40:33.356Z,17.14
2022-10-23T03:41:33.323Z,17.63
2022-10-23T03:42:33.321Z,17.54
2022-10-23T03:43:33.291Z,17.78
2022-10-23T03:44:33.289Z,18.27
2022-10-23T03:45:33.279Z,18.28
2022-10-23T03:46:33.263Z,18.18
2022-10-23T03:47:33.249Z,18.04
2022-10-23T03:48:33.339Z,18.13
2022-10-23T03:49:34.440Z,18.19
2022-10-23T03:50:55.290Z,18.31
2022-10-23T03:51:34.388Z,18.72
2022-10-23T03:52:44.801Z,18.73
2022-10-23T03:53:33.430Z,18.76
2022-10-23T03:54:34.329Z,18.87
2022-10-23T03:55:33.340Z,18.61
2022-10-23T03:56:33.376Z,18.95
2022-10-23T03:57:33.283Z,18.94
2022-10-23T03:58:34.247Z,18.9
2022-10-23T03:59:34.261Z,18.76
2022-10-23T04:00:33.270Z,18.67
2022-10-23T04:01:33.228Z,18.36
2022-10-23T04:02:34.226Z,18.04
2022-10-23T04:03:33.115Z,18.22
2022-10-23T04:04:33.386Z,18.22
2022-10-23T04:05:33.162Z,18.67
2022-10-23T04:06:33.225Z,18.37
2022-10-23T04:07:33.157Z,18.79
2022-10-23T04:08:34.304Z,18.8
2022-10-23T04:09:33.139Z,18.95
2022-10-23T04:10:33.115Z,18.86
2022-10-23T04:11:33.060Z,18.58
2022-10-23T04:12:33.053Z,18.47
2022-10-23T04:13:34.090Z,18.25
2022-10-23T04:14:34.043Z,18.61
2022-10-23T04:15:34.154Z,18.44
2022-10-23T04:16:33.188Z,18.57
2022-10-23T04:17:34.057Z,18.61
2022-10-23T04:18:33.977Z,18.73
2022-10-23T04:19:34.009Z,18.8
2022-10-23T04:20:33.040Z,19.15
2022-10-23T04:21:33.981Z,19.01
2022-10-23T04:22:33.049Z,18.72
2022-10-23T04:23:34.056Z,18.64
2022-10-23T04:24:33.010Z,18.79
2022-10-23T04:25:33.001Z,18.91
2022-10-23T04:26:32.973Z,18.92
2022-10-23T04:27:33.044Z,19.05
2022-10-23T04:28:33.941Z,18.55
2022-10-23T04:29:34.040Z,18.18
2022-10-23T04:30:33.006Z,18.29
2022-10-23T04:31:34.015Z,18.74
2022-10-23T04:32:33.855Z,18.86
2022-10-23T04:33:33.922Z,18.73
2022-10-23T04:34:34.088Z,18.84
2022-10-23T04:35:32.880Z,18.9
2022-10-23T04:36:32.864Z,18.87
2022-10-23T04:37:33.795Z,18.87
2022-10-23T04:38:33.810Z,18.97
2022-10-23T04:39:32.884Z,18.87
2022-10-23T04:40:34.088Z,18.83
2022-10-23T04:41:33.885Z,18.37
2022-10-23T04:42:33.897Z,18.4
2022-10-23T04:43:33.706Z,18.72
2022-10-23T04:44:33.852Z,18.68
2022-10-23T04:45:33.760Z,18.55
2022-10-23T04:46:33.688Z,18.34
2022-10-23T04:47:33.819Z,18.22
2022-10-23T04:48:33.719Z,18.17
2022-10-23T04:49:32.630Z,18.03
2022-10-23T04:50:33.716Z,18.27
2022-10-23T04:51:32.655Z,19.11
2022-10-23T04:52:32.592Z,19.4
2022-10-23T04:53:34.029Z,19.25
2022-10-23T04:54:32.661Z,18.76
2022-10-23T04:55:32.641Z,18.59
2022-10-23T04:56:32.656Z,18.02
2022-10-23T04:57:33.608Z,17.82
2022-10-23T04:58:33.609Z,17.69
2022-10-23T04:59:32.612Z,17.79
2022-10-23T05:00:33.739Z,17.99
2022-10-23T05:01:32.555Z,18.24
2022-10-23T05:02:32.562Z,18.28
2022-10-23T05:03:32.500Z,18.61
2022-10-23T05:04:33.632Z,18.95
2022-10-23T05:05:33.599Z,18.95
2022-10-23T05:06:32.505Z,19.06
2022-10-23T05:07:32.605Z,18.98
2022-10-23T05:08:33.526Z,19.23
2022-10-23T05:09:32.518Z,19.33
2022-10-23T05:10:32.667Z,19.21
2022-10-23T05:11:33.460Z,18.9
2022-10-23T05:12:32.511Z,18.98
2022-10-23T05:13:32.398Z,18.92
2022-10-23T05:30:06.021Z,20.1
2022-10-23T05:31:07.359Z,18.83
2022-10-23T05:32:06.058Z,17.97
2022-10-23T05:33:06.083Z,17.63
2022-10-23T05:34:07.428Z,17.25
2022-10-23T05:35:06.008Z,17.23
2022-10-23T05:36:07.094Z,17.2
2022-10-23T05:37:06.147Z,17.35
2022-10-23T05:38:06.122Z,17.32
2022-10-23T05:39:07.121Z,17.06
2022-10-23T05:40:06.976Z,17.29
2022-10-23T05:41:06.049Z,17.63
2022-10-23T05:42:05.822Z,17.63
2022-10-23T05:43:05.817Z,17.13
2022-10-23T05:44:05.796Z,17.25
2022-10-23T05:45:05.792Z,17.14
2022-10-23T05:46:05.776Z,16.86
2022-10-23T05:47:05.771Z,16.86
2022-10-23T05:48:05.769Z,17.23
2022-10-23T05:49:05.744Z,17.55
2022-10-23T05:50:05.735Z,17.53
2022-10-23T05:51:05.724Z,17.64
2022-10-23T05:52:05.710Z,17.57
2022-10-23T05:53:05.711Z,17.44
2022-10-23T05:54:05.702Z,16.93
2022-10-23T05:55:05.674Z,16.88
2022-10-23T05:56:05.752Z,16.59
2022-10-23T05:57:06.680Z,16.49
2022-10-23T05:58:05.763Z,16.5
2022-10-23T06:00:38.965Z,17.41
2022-10-23T06:01:38.947Z,17.48
2022-10-23T06:02:38.906Z,17.57
2022-10-23T06:03:38.922Z,17.36
2022-10-23T06:04:38.894Z,17.4
2022-10-23T06:06:38.876Z,17.43
2022-10-23T06:07:39.038Z,16.85
2022-10-23T06:10:41.140Z,17.28
2022-10-23T06:11:41.157Z,17.15
2022-10-23T06:12:41.215Z,17.06
2022-10-23T06:13:41.189Z,16.85
2022-10-23T06:14:42.089Z,17.25
2022-10-23T06:15:41.047Z,17.78
2022-10-23T06:16:41.046Z,17.69
2022-10-23T06:17:41.030Z,17.51
2022-10-23T06:18:41.020Z,17.59
2022-10-23T06:19:41.016Z,17.44
2022-10-23T06:20:40.998Z,17.33
2022-10-23T06:21:40.982Z,17.22
2022-10-23T06:22:40.977Z,17.15
2022-10-23T06:23:40.963Z,17.08
2022-10-23T06:24:40.954Z,17.59
2022-10-23T06:25:40.944Z,17.89
2022-10-23T06:26:40.935Z,17.78
2022-10-23T06:27:40.923Z,17.89
2022-10-23T06:28:40.908Z,17.92
2022-10-23T06:29:40.904Z,17.88
2022-10-23T06:30:40.892Z,17.51
2022-10-23T06:31:40.896Z,17.59
2022-10-23T06:32:40.865Z,17.81
2022-10-23T06:33:40.864Z,18
2022-10-23T06:34:40.848Z,17.97
2022-10-23T06:35:40.837Z,17.66
2022-10-23T06:36:40.824Z,17.53
2022-10-23T06:37:40.821Z,17.28
2022-10-23T06:38:40.800Z,17.53
2022-10-23T06:39:40.794Z,17.44
2022-10-23T06:40:40.781Z,17.63
2022-10-23T06:41:40.771Z,17.66
2022-10-23T06:42:40.760Z,17.53
2022-10-23T06:43:40.759Z,17.44
2022-10-23T06:44:40.738Z,17.2
2022-10-23T06:45:40.733Z,17.43
2022-10-23T06:46:40.717Z,17.67
2022-10-23T06:47:40.707Z,17.5
2022-10-23T06:48:40.705Z,17.62
2022-10-23T06:49:40.692Z,17.63
2022-10-23T06:50:40.671Z,17.4
2022-10-23T06:51:40.661Z,17.54
2022-10-23T06:52:40.664Z,17.53
2022-10-23T06:53:40.645Z,17.64
2022-10-23T06:54:40.651Z,17.76
2022-10-23T06:55:40.622Z,18.04
2022-10-23T06:56:40.611Z,17.89
2022-10-23T06:57:40.602Z,18.15
2022-10-23T06:58:40.585Z,18.09
2022-10-23T06:59:48.173Z,18.39
2022-10-23T07:00:40.581Z,17.78
2022-10-23T07:01:48.156Z,18.91
2022-10-23T07:02:48.220Z,19.8
2022-10-23T07:03:48.204Z,20.15
2022-10-23T07:04:48.124Z,19.97
2022-10-23T07:05:49.520Z,19.51
2022-10-23T07:06:40.501Z,19.51
2022-10-23T07:07:49.197Z,19.38
2022-10-23T07:08:49.126Z,19.48
2022-10-23T07:09:40.494Z,18.87
2022-10-23T07:10:40.455Z,18.22
2022-10-23T07:11:40.493Z,18.17
2022-10-23T07:12:40.464Z,17.78
2022-10-23T07:13:40.487Z,17.57
2022-10-23T07:14:40.467Z,17.7
2022-10-23T07:15:40.481Z,17.43
2022-10-23T07:16:40.406Z,17.69
2022-10-23T07:17:40.384Z,17.79
2022-10-23T07:18:40.376Z,17.47
2022-10-23T07:19:40.361Z,17.13
2022-10-23T07:20:40.350Z,17.28
2022-10-23T07:21:40.346Z,17.44
2022-10-23T07:22:40.398Z,17.7
2022-10-23T07:23:40.332Z,17.99
2022-10-23T07:24:40.312Z,17.87
2022-10-23T07:25:40.302Z,17.91
2022-10-23T07:26:40.287Z,18.03
2022-10-23T07:27:40.292Z,18.34
2022-10-23T07:28:40.296Z,18.13
2022-10-23T07:29:40.251Z,18
2022-10-23T07:30:40.242Z,17.64
2022-10-23T07:31:40.227Z,17.57
2022-10-23T07:32:40.218Z,18.4
2022-10-23T07:33:40.224Z,18.8
2022-10-23T07:34:40.199Z,18.98
2022-10-23T07:35:40.191Z,19.08
2022-10-23T07:36:40.173Z,19.28
2022-10-23T07:37:40.169Z,19.65
2022-10-23T07:38:40.162Z,19.54
2022-10-23T07:39:40.150Z,19.68
2022-10-23T07:40:40.130Z,19.78
2022-10-23T07:41:40.120Z,19.4
2022-10-23T07:42:40.111Z,18.74
2022-10-23T07:43:40.101Z,18.68
2022-10-23T07:44:40.095Z,18.28
2022-10-23T07:45:40.092Z,17.94
2022-10-23T07:46:40.067Z,18.07
2022-10-23T07:47:40.055Z,17.82
2022-10-23T07:48:40.042Z,18.28
2022-10-23T07:49:40.037Z,18.52
2022-10-23T07:50:40.031Z,18.74
2022-10-23T07:51:40.024Z,18.64
2022-10-23T07:52:40.008Z,18.17
2022-10-23T07:53:39.993Z,18.07
2022-10-23T07:54:39.981Z,18.07
2022-10-23T07:55:39.975Z,18.22
2022-10-23T07:56:39.966Z,18.83
2022-10-23T07:57:40.053Z,18.83
2022-10-23T07:58:40.954Z,18.37
2022-10-23T07:59:39.926Z,18.04
2022-10-23T08:00:39.915Z,18.03
2022-10-23T08:01:39.914Z,18.22
2022-10-23T08:02:39.894Z,18.34
2022-10-23T08:03:39.889Z,17.82
2022-10-23T08:04:39.893Z,18.09
2022-10-23T08:05:39.866Z,18.31
2022-10-23T08:06:39.852Z,18.55
2022-10-23T08:07:39.839Z,18.77
2022-10-23T08:08:39.839Z,18.91
2022-10-23T08:09:39.839Z,18.86
2022-10-23T08:13:09.363Z,19.35
2022-10-23T08:14:09.252Z,18.91
2022-10-23T08:15:09.209Z,19.06
2022-10-23T08:16:09.222Z,18.9
2022-10-23T08:17:09.204Z,19.05
2022-10-23T08:18:09.176Z,19.21
2022-10-23T08:19:09.229Z,19.24
2022-10-23T08:20:09.169Z,19.23
2022-10-23T08:21:09.186Z,18.95
2022-10-23T08:22:09.133Z,19.75
2022-10-23T08:23:09.166Z,20.12
2022-10-23T08:24:09.133Z,20.21
2022-10-23T08:25:09.109Z,20.08
2022-10-23T08:26:09.122Z,20.53
2022-10-23T08:27:09.106Z,20.69
2022-10-23T08:28:09.089Z,19.54
2022-10-23T08:29:09.061Z,18.76
2022-10-23T08:30:09.063Z,19.76
2022-10-23T08:31:09.076Z,20.54
2022-10-23T08:32:09.031Z,20.8
2022-10-23T08:33:09.076Z,19.66
2022-10-23T08:34:09.028Z,19.14
2022-10-23T08:35:08.993Z,20.68
2022-10-23T08:36:09.078Z,20.83
2022-10-23T08:37:09.074Z,21.23
2022-10-23T08:38:10.026Z,21.19
2022-10-23T08:39:09.114Z,21.26
2022-10-23T08:40:08.955Z,21.81
2022-10-23T08:41:08.936Z,21.9
2022-10-23T08:43:08.912Z,20.08
2022-10-23T08:44:08.904Z,20.72
2022-10-23T08:45:08.904Z,21.46
2022-10-23T08:46:08.889Z,20.68
2022-10-23T08:47:08.870Z,20.05
2022-10-23T08:48:08.859Z,19.08
2022-10-23T08:49:08.849Z,19.79
2022-10-23T08:50:08.858Z,19.2
2022-10-23T08:51:08.829Z,19.7
2022-10-23T08:52:08.826Z,19.68
2022-10-23T08:53:08.812Z,18.97
2022-10-23T08:54:08.800Z,18.68
2022-10-23T08:55:08.788Z,19.54
2022-10-23T08:56:08.794Z,19.63
2022-10-23T08:57:08.770Z,18.98
2022-10-23T08:58:08.756Z,19.28
2022-10-23T08:59:08.747Z,19.13
2022-10-23T09:00:08.740Z,19.18
2022-10-23T09:01:08.731Z,20.12
2022-10-23T09:02:08.716Z,20.33
2022-10-23T09:03:08.712Z,21.01
2022-10-23T09:04:08.694Z,21.56
2022-10-23T09:05:08.683Z,22.01
2022-10-23T09:06:08.672Z,21.97
2022-10-23T09:08:08.651Z,22.14
2022-10-23T09:09:08.667Z,22.23
2022-10-23T09:10:08.627Z,22.19
2022-10-23T09:11:08.624Z,21.9
2022-10-23T09:12:08.608Z,21.51
2022-10-23T09:13:08.595Z,20.24
2022-10-23T09:14:08.588Z,20.56
2022-10-23T09:15:08.586Z,20.56
2022-10-23T09:16:08.573Z,20.62
2022-10-23T09:17:08.565Z,20.53
2022-10-23T09:18:08.553Z,21.54
2022-10-23T09:19:08.530Z,21.67
2022-10-23T09:20:08.515Z,22.32
2022-10-23T09:21:08.518Z,21.83
2022-10-23T09:22:08.504Z,21.45
2022-10-23T09:23:08.489Z,20.83
2022-10-23T09:24:08.474Z,21.61
2022-10-23T09:25:08.466Z,21.57
2022-10-23T09:26:08.452Z,21.6
2022-10-23T09:27:08.438Z,22.07
2022-10-23T09:28:08.461Z,22.17
2022-10-23T09:29:08.424Z,22.44
2022-10-23T09:30:08.433Z,22.59
2022-10-23T09:31:08.394Z,22.64
2022-10-23T09:32:08.384Z,22.47
2022-10-23T09:33:08.373Z,22.53
2022-10-23T09:34:08.379Z,22.2
2022-10-23T09:35:08.424Z,21.98
2022-10-23T09:36:08.342Z,22.29
2022-10-23T09:37:08.334Z,22.67
2022-10-23T09:38:08.324Z,22.87
2022-10-23T09:39:08.308Z,23.05
2022-10-23T09:40:08.307Z,23.01
2022-10-23T09:41:08.303Z,21.48
2022-10-23T09:42:08.271Z,20.68
2022-10-23T09:43:08.265Z,21.48
2022-10-23T09:44:08.251Z,21.88
2022-10-23T09:45:08.239Z,22.68
2022-10-23T09:46:08.246Z,22.94
2022-10-23T09:47:08.216Z,21.92
2022-10-23T09:48:08.209Z,22.86
2022-10-23T09:49:08.258Z,23.02
2022-10-23T09:50:08.180Z,23.02
2022-10-23T09:51:08.174Z,22.04
2022-10-23T09:52:08.202Z,22.25
2022-10-23T09:53:08.156Z,21.85
2022-10-23T09:54:08.143Z,21.06
2022-10-23T09:55:08.129Z,21.53
2022-10-23T09:56:08.137Z,21.9
2022-10-23T09:57:08.138Z,22.23
2022-10-23T09:58:08.110Z,21.98
2022-10-23T09:59:08.089Z,22.28
2022-10-23T10:00:08.082Z,22.41
2022-10-23T10:01:08.067Z,22.71
2022-10-23T10:02:08.055Z,22.9
2022-10-23T10:03:08.043Z,22.92
2022-10-23T10:04:08.033Z,22.89
2022-10-23T10:05:08.018Z,22.41
2022-10-23T10:06:08.032Z,22.54
2022-10-23T10:07:08.010Z,23.02
2022-10-23T10:08:07.986Z,23.32
2022-10-23T10:09:07.980Z,23.08
2022-10-23T10:10:07.968Z,22.74
2022-10-23T10:11:07.957Z,22.6
2022-10-23T10:12:07.956Z,22.78
2022-10-23T10:13:07.932Z,22.57
2022-10-23T10:14:07.931Z,22.28
2022-10-23T10:15:07.910Z,22.41
2022-10-23T10:16:07.905Z,22.23
2022-10-23T10:17:07.898Z,22.27
2022-10-23T10:18:07.890Z,22.23
2022-10-23T10:19:07.868Z,22.6
2022-10-23T10:20:07.867Z,22.27
2022-10-23T10:40:22.308Z,21.16
2022-10-23T10:41:23.170Z,22.23
2022-10-23T10:42:22.158Z,22.8
2022-10-23T10:43:22.169Z,23.23
2022-10-23T10:44:22.104Z,23.68
2022-10-23T10:45:22.104Z,24.2
2022-10-23T10:46:22.096Z,24.31
2022-10-23T10:47:22.104Z,23.92
2022-10-23T10:48:22.075Z,23.98
2022-10-23T10:49:22.142Z,23.94
2022-10-23T10:50:22.054Z,24.26
2022-10-23T10:51:22.037Z,23.86
2022-10-23T10:52:22.021Z,23.67
2022-10-23T10:53:22.021Z,23.07
2022-10-23T10:54:21.994Z,23.35
2022-10-23T10:55:22.001Z,24.12
2022-10-23T10:56:22.055Z,24.27
2022-10-23T10:57:21.972Z,22.64
2022-10-23T10:58:21.980Z,21.9
2022-10-23T10:59:21.949Z,22.67
2022-10-23T11:00:21.952Z,22.78
2022-10-23T11:01:21.991Z,22.74
2022-10-23T11:02:22.038Z,22.27
2022-10-23T11:03:21.911Z,22.09
2022-10-23T11:04:21.889Z,22.54
2022-10-23T11:05:21.899Z,23.17
2022-10-23T11:06:21.870Z,23.43
2022-10-23T11:07:21.860Z,23.85
2022-10-23T11:08:21.860Z,23.83
2022-10-23T11:09:21.837Z,24.04
2022-10-23T11:10:21.828Z,24.16
2022-10-23T11:11:21.831Z,24.54
2022-10-23T11:12:21.803Z,24.47
2022-10-23T11:13:21.802Z,24.32
2022-10-23T11:14:21.796Z,24.14
2022-10-23T11:15:21.777Z,24.97
2022-10-23T11:16:21.765Z,25.19
2022-10-23T11:17:21.753Z,25.44
2022-10-23T11:18:21.746Z,24.69
2022-10-23T11:19:21.742Z,25.19
2022-10-23T11:20:21.734Z,25.12
2022-10-23T11:21:21.726Z,25
2022-10-23T11:22:21.750Z,25.34
2022-10-23T11:23:21.703Z,25.31
2022-10-23T11:24:21.676Z,25.1
2022-10-23T11:25:21.674Z,25.01
2022-10-23T11:26:21.666Z,24.45
2022-10-23T11:27:21.652Z,23.62
2022-10-23T11:28:21.637Z,23.08
2022-10-23T11:29:21.624Z,23.46
2022-10-23T11:30:21.614Z,23.15
2022-10-23T11:31:21.602Z,23.09
2022-10-23T11:32:21.602Z,23.02
2022-10-23T11:33:21.586Z,22.92
2022-10-23T11:34:21.574Z,24.24
2022-10-23T11:35:21.561Z,24.83
2022-10-23T11:36:21.553Z,24.32
2022-10-23T11:37:21.542Z,23.43
2022-10-23T11:38:21.542Z,23.15
2022-10-23T11:39:21.528Z,23.04
2022-10-23T11:40:21.507Z,22.83
2022-10-23T11:41:21.498Z,22.49
2022-10-23T11:42:21.489Z,22.78
2022-10-23T11:43:21.474Z,23.92
2022-10-23T11:44:21.475Z,24.37
2022-10-23T11:45:21.460Z,25.07
2022-10-23T11:46:21.449Z,25.62
2022-10-23T11:47:21.441Z,25.01
2022-10-23T11:48:21.426Z,24.16
2022-10-23T11:49:21.423Z,24.29
2022-10-23T11:50:21.410Z,24.34
2022-10-23T11:51:21.406Z,24.04
2022-10-23T11:52:21.385Z,24.12
2022-10-23T11:53:21.372Z,24.39
2022-10-23T11:54:21.363Z,24.38
2022-10-23T11:55:21.348Z,23.87
2022-10-23T11:56:21.367Z,23.42
2022-10-23T11:57:21.331Z,23.52
2022-10-23T11:58:21.318Z,23.55
2022-10-23T11:59:21.306Z,23.85
2022-10-23T12:00:21.332Z,24.22
2022-10-23T12:01:21.292Z,24.37
2022-10-23T12:02:21.304Z,24.47
2022-10-23T12:03:21.267Z,24.94
2022-10-23T12:04:21.257Z,24.52
2022-10-23T12:05:21.244Z,24.53
2022-10-23T12:06:21.238Z,24.83
2022-10-23T12:07:21.227Z,24.6
2022-10-23T12:08:21.219Z,24.82
2022-10-23T12:09:21.203Z,24.68
2022-10-23T12:10:21.191Z,24.61
2022-10-23T12:11:21.186Z,24.63
2022-10-23T12:12:21.169Z,24.61
2022-10-23T12:13:21.161Z,24.31
2022-10-23T12:14:21.160Z,24.1
2022-10-23T12:15:21.140Z,24.24
2022-10-23T12:16:21.138Z,24.04
2022-10-23T12:17:21.114Z,24.38
2022-10-23T12:18:21.105Z,24.38
2022-10-23T12:19:21.114Z,24.16
2022-10-23T12:20:21.101Z,24.34
2022-10-23T12:21:21.085Z,24.44
2022-10-23T12:22:21.067Z,24.35
2022-10-23T12:23:21.058Z,24.07
2022-10-23T12:24:21.040Z,24.01
2022-10-23T12:25:21.038Z,24.2
2022-10-23T12:26:21.035Z,24.5
2022-10-23T12:27:21.015Z,24.8
2022-10-23T12:28:21.008Z,25.28
2022-10-23T12:29:20.990Z,23.15
2022-10-23T12:30:20.979Z,22.19
2022-10-23T12:31:20.976Z,21.5
2022-10-23T12:32:20.959Z,21.13
2022-10-23T12:33:20.965Z,20.91
2022-10-23T12:34:20.935Z,20.74
2022-10-23T12:35:20.928Z,20.84
2022-10-23T12:36:20.914Z,20.84
2022-10-23T12:37:20.927Z,20.95
2022-10-23T12:38:20.898Z,20.95
2022-10-23T12:39:20.899Z,21.34
2022-10-23T12:40:20.885Z,21.01
2022-10-23T12:41:20.859Z,20.91
2022-10-23T12:42:20.867Z,20.84
2022-10-23T12:43:20.851Z,21.06
2022-10-23T12:44:20.831Z,21.81
2022-10-23T12:45:20.830Z,22.37
2022-10-23T12:46:20.819Z,22.54
2022-10-23T12:47:20.814Z,22.8
2022-10-23T12:48:20.794Z,22.96
2022-10-23T12:49:20.784Z,23.05
2022-10-23T12:50:20.767Z,22.25
2022-10-23T12:51:20.765Z,21.63
2022-10-23T12:52:20.752Z,22.25
2022-10-23T12:53:20.760Z,21.5
2022-10-23T12:54:20.726Z,21.3
2022-10-23T12:55:20.717Z,21.16
2022-10-23T12:56:20.706Z,20.89
2022-10-23T12:57:20.698Z,20.96
2022-10-23T12:58:20.683Z,21.79
2022-10-23T12:59:20.681Z,21.5
2022-10-23T13:00:20.670Z,21.61
2022-10-23T13:01:20.654Z,21.3
2022-10-23T13:02:20.643Z,20.93
2022-10-23T13:03:20.635Z,21.06
2022-10-23T13:04:20.624Z,23.42
2022-10-23T13:05:20.618Z,24.34
2022-10-23T13:15:09.913Z,23.2
2022-10-23T13:33:30.422Z,21.45
2022-10-23T13:34:31.356Z,21.35
2022-10-23T13:35:30.329Z,20.96
2022-10-23T13:36:30.338Z,20.98
2022-10-23T13:37:30.333Z,20.89
2022-10-23T13:38:30.282Z,20.81
2022-10-23T13:39:30.327Z,21.05
2022-10-23T13:40:30.267Z,21.24
2022-10-23T13:41:30.335Z,21.08
2022-10-23T13:42:31.237Z,21.41
2022-10-23T13:43:30.247Z,21.42
2022-10-23T13:44:30.255Z,21.95
2022-10-23T13:45:30.220Z,21.5
2022-10-23T13:46:30.236Z,21.48
2022-10-23T13:47:30.189Z,21.21
2022-10-23T13:48:30.179Z,21.48
2022-10-23T13:49:30.167Z,21.44
2022-10-23T13:50:30.198Z,22.65
2022-10-23T13:51:30.144Z,22.93
2022-10-23T13:52:30.152Z,22.22
2022-10-23T13:53:30.148Z,21.83
2022-10-23T13:54:30.163Z,21.63
2022-10-23T13:55:30.124Z,22.53
2022-10-23T13:56:30.093Z,22.57
2022-10-23T13:57:30.081Z,21.92
2022-10-23T13:58:30.125Z,21.6
2022-10-23T13:59:30.071Z,21.16
2022-10-23T14:00:30.058Z,21.32
2022-10-23T14:01:30.099Z,21.61
2022-10-23T14:02:30.061Z,21.59
2022-10-23T14:03:30.025Z,21.46
2022-10-23T14:04:30.042Z,21.45
2022-10-23T14:05:30.041Z,22.75